sensor_id;sensor_type;location;lat;lon;timestamp;temperature;humidity
9847;DHT22;68671;50.084;8.794;2024-02-26T00:03:16;8.90;99.90
9847;DHT22;68671;50.084;8.794;2024-02-26T00:09:38;8.80;99.90
9847;DHT22;68671;50.084;8.794;2024-02-26T00:12:31;8.80;99.90
9847;DHT22;68671;50.084;8.794;2024-02-26T00:15:17;8.70;99.90
9847;DHT22;68671;50.084;8.794;2024-02-26T00:18:07;8.70;99.90
9847;DHT22;68671;50.084;8.794;2024-02-26T00:20:46;8.60;99.90
9847;DHT22;68671;50.084;8.794;2024-02-26T00:23:49;8.60;99.90
9847;DHT22;68671;50.084;8.794;2024-02-26T00:29:58;8.50;99.90
9847;DHT22;68671;50.084;8.794;2024-02-26T00:32:46;8.50;99.90
9847;DHT22;68671;50.084;8.794;2024-02-26T00:35:33;8.50;99.90
9847;DHT22;68671;50.084;8.794;2024-02-26T00:38:06;8.50;99.90
9847;DHT22;68671;50.084;8.794;2024-02-26T00:43:50;8.60;99.90
9847;DHT22;68671;50.084;8.794;2024-02-26T00:47:05;8.60;99.90
9847;DHT22;68671;50.084;8.794;2024-02-26T00:54:17;8.60;99.90
9847;DHT22;68671;50.084;8.794;2024-02-26T00:57:23;8.60;99.90
9847;DHT22;68671;50.084;8.794;2024-02-26T01:00:24;8.50;99.90
9847;DHT22;68671;50.084;8.794;2024-02-26T01:03:34;8.40;99.90
9847;DHT22;68671;50.084;8.794;2024-02-26T01:09:37;8.40;99.90
9847;DHT22;68671;50.084;8.794;2024-02-26T01:12:23;8.50;99.90
9847;DHT22;68671;50.084;8.794;2024-02-26T01:15:12;8.40;99.90
9847;DHT22;68671;50.084;8.794;2024-02-26T01:17:55;8.40;99.90
9847;DHT22;68671;50.084;8.794;2024-02-26T01:20:30;8.40;99.90
9847;DHT22;68671;50.084;8.794;2024-02-26T01:23:14;8.50;99.90
9847;DHT22;68671;50.084;8.794;2024-02-26T01:29:04;8.50;99.90
9847;DHT22;68671;50.084;8.794;2024-02-26T01:31:46;8.60;99.90
9847;DHT22;68671;50.084;8.794;2024-02-26T01:34:22;8.60;99.90
9847;DHT22;68671;50.084;8.794;2024-02-26T01:40:14;8.60;99.90
9847;DHT22;68671;50.084;8.794;2024-02-26T01:42:59;8.70;99.90
9847;DHT22;68671;50.084;8.794;2024-02-26T01:45:34;8.70;99.90
9847;DHT22;68671;50.084;8.794;2024-02-26T01:48:21;8.70;99.90
9847;DHT22;68671;50.084;8.794;2024-02-26T01:50:49;8.70;99.90
9847;DHT22;68671;50.084;8.794;2024-02-26T01:53:19;8.70;99.90
9847;DHT22;68671;50.084;8.794;2024-02-26T01:55:46;8.70;99.90
9847;DHT22;68671;50.084;8.794;2024-02-26T01:58:14;8.70;99.90
9847;DHT22;68671;50.084;8.794;2024-02-26T02:00:41;8.70;99.90
9847;DHT22;68671;50.084;8.794;2024-02-26T02:03:08;8.70;99.90
9847;DHT22;68671;50.084;8.794;2024-02-26T02:05:36;8.70;99.90
9847;DHT22;68671;50.084;8.794;2024-02-26T02:08:07;8.70;99.90
9847;DHT22;68671;50.084;8.794;2024-02-26T02:10:37;8.70;99.90
9847;DHT22;68671;50.084;8.794;2024-02-26T02:13:04;8.70;99.90
9847;DHT22;68671;50.084;8.794;2024-02-26T02:15:31;8.70;99.90
9847;DHT22;68671;50.084;8.794;2024-02-26T02:18:04;8.70;99.90
9847;DHT22;68671;50.084;8.794;2024-02-26T02:20:34;8.60;99.90
9847;DHT22;68671;50.084;8.794;2024-02-26T02:23:01;8.70;99.90
9847;DHT22;68671;50.084;8.794;2024-02-26T02:25:28;8.60;99.90
9847;DHT22;68671;50.084;8.794;2024-02-26T02:27:58;8.60;99.90
9847;DHT22;68671;50.084;8.794;2024-02-26T02:30:28;8.50;99.90
9847;DHT22;68671;50.084;8.794;2024-02-26T02:32:57;8.50;99.90
9847;DHT22;68671;50.084;8.794;2024-02-26T02:35:25;8.50;99.90
9847;DHT22;68671;50.084;8.794;2024-02-26T02:37:54;8.50;99.90
9847;DHT22;68671;50.084;8.794;2024-02-26T02:40:21;8.50;99.90
9847;DHT22;68671;50.084;8.794;2024-02-26T02:42:48;8.60;99.90
9847;DHT22;68671;50.084;8.794;2024-02-26T02:45:14;8.50;99.90
9847;DHT22;68671;50.084;8.794;2024-02-26T02:47:41;8.50;99.90
9847;DHT22;68671;50.084;8.794;2024-02-26T02:50:09;8.50;99.90
9847;DHT22;68671;50.084;8.794;2024-02-26T02:52:49;8.40;99.90
9847;DHT22;68671;50.084;8.794;2024-02-26T02:55:34;8.50;99.90
9847;DHT22;68671;50.084;8.794;2024-02-26T02:58:40;8.50;99.90
9847;DHT22;68671;50.084;8.794;2024-02-26T03:01:21;8.40;99.90
9847;DHT22;68671;50.084;8.794;2024-02-26T03:04:40;8.40;99.90
9847;DHT22;68671;50.084;8.794;2024-02-26T03:07:28;8.40;99.90
9847;DHT22;68671;50.084;8.794;2024-02-26T03:10:26;8.40;99.90
9847;DHT22;68671;50.084;8.794;2024-02-26T03:12:59;8.40;99.90
9847;DHT22;68671;50.084;8.794;2024-02-26T03:15:50;8.40;99.90
9847;DHT22;68671;50.084;8.794;2024-02-26T03:18:20;8.30;99.90
9847;DHT22;68671;50.084;8.794;2024-02-26T03:20:47;8.30;99.90
9847;DHT22;68671;50.084;8.794;2024-02-26T03:23:14;8.30;99.90
9847;DHT22;68671;50.084;8.794;2024-02-26T03:25:44;8.30;99.90
9847;DHT22;68671;50.084;8.794;2024-02-26T03:28:13;8.30;99.90
9847;DHT22;68671;50.084;8.794;2024-02-26T03:30:43;8.30;99.90
9847;DHT22;68671;50.084;8.794;2024-02-26T03:33:10;8.20;99.90
9847;DHT22;68671;50.084;8.794;2024-02-26T03:35:37;8.20;99.90
9847;DHT22;68671;50.084;8.794;2024-02-26T03:38:04;8.10;99.90
9847;DHT22;68671;50.084;8.794;2024-02-26T03:40:33;8.00;99.90
9847;DHT22;68671;50.084;8.794;2024-02-26T03:43:04;7.90;99.90
9847;DHT22;68671;50.084;8.794;2024-02-26T03:45:34;7.80;99.90
9847;DHT22;68671;50.084;8.794;2024-02-26T03:48:06;7.80;99.90
9847;DHT22;68671;50.084;8.794;2024-02-26T03:50:33;7.80;99.90
9847;DHT22;68671;50.084;8.794;2024-02-26T03:53:01;7.80;99.90
9847;DHT22;68671;50.084;8.794;2024-02-26T03:55:31;7.70;99.90
9847;DHT22;68671;50.084;8.794;2024-02-26T03:58:01;7.70;99.90
9847;DHT22;68671;50.084;8.794;2024-02-26T04:00:31;7.60;99.90
9847;DHT22;68671;50.084;8.794;2024-02-26T04:03:01;7.60;99.90
9847;DHT22;68671;50.084;8.794;2024-02-26T04:05:28;7.60;99.90
9847;DHT22;68671;50.084;8.794;2024-02-26T04:07:55;7.60;99.90
9847;DHT22;68671;50.084;8.794;2024-02-26T04:10:22;7.50;99.90
9847;DHT22;68671;50.084;8.794;2024-02-26T04:12:50;7.50;99.90
9847;DHT22;68671;50.084;8.794;2024-02-26T04:15:17;7.50;99.90
9847;DHT22;68671;50.084;8.794;2024-02-26T04:17:44;7.50;99.90
9847;DHT22;68671;50.084;8.794;2024-02-26T04:20:15;7.40;99.90
9847;DHT22;68671;50.084;8.794;2024-02-26T04:22:42;7.50;99.90
9847;DHT22;68671;50.084;8.794;2024-02-26T04:25:09;7.30;99.90
9847;DHT22;68671;50.084;8.794;2024-02-26T04:27:36;7.40;99.90
9847;DHT22;68671;50.084;8.794;2024-02-26T04:30:04;7.40;99.90
9847;DHT22;68671;50.084;8.794;2024-02-26T04:32:31;7.40;99.90
9847;DHT22;68671;50.084;8.794;2024-02-26T04:35:05;7.40;99.90
9847;DHT22;68671;50.084;8.794;2024-02-26T04:37:34;7.40;99.90
9847;DHT22;68671;50.084;8.794;2024-02-26T04:40:05;7.50;99.90
9847;DHT22;68671;50.084;8.794;2024-02-26T04:42:38;7.50;99.90
9847;DHT22;68671;50.084;8.794;2024-02-26T04:45:10;7.60;99.90
9847;DHT22;68671;50.084;8.794;2024-02-26T04:47:55;7.60;99.90
9847;DHT22;68671;50.084;8.794;2024-02-26T04:50:34;7.60;99.90
9847;DHT22;68671;50.084;8.794;2024-02-26T04:53:31;7.60;99.90
9847;DHT22;68671;50.084;8.794;2024-02-26T04:56:07;7.50;99.90
9847;DHT22;68671;50.084;8.794;2024-02-26T04:59:14;7.50;99.90
9847;DHT22;68671;50.084;8.794;2024-02-26T05:01:53;7.40;99.90
9847;DHT22;68671;50.084;8.794;2024-02-26T05:04:32;7.30;99.90
9847;DHT22;68671;50.084;8.794;2024-02-26T05:07:18;7.30;99.90
9847;DHT22;68671;50.084;8.794;2024-02-26T05:10:32;7.20;99.90
9847;DHT22;68671;50.084;8.794;2024-02-26T05:13:34;7.20;99.90
9847;DHT22;68671;50.084;8.794;2024-02-26T05:16:11;7.20;99.90
9847;DHT22;68671;50.084;8.794;2024-02-26T05:18:41;7.20;99.90
9847;DHT22;68671;50.084;8.794;2024-02-26T05:21:10;7.10;99.90
9847;DHT22;68671;50.084;8.794;2024-02-26T05:23:37;7.20;99.90
9847;DHT22;68671;50.084;8.794;2024-02-26T05:26:10;7.10;99.90
9847;DHT22;68671;50.084;8.794;2024-02-26T05:28:38;7.10;99.90
9847;DHT22;68671;50.084;8.794;2024-02-26T05:34:52;7.00;99.90
9847;DHT22;68671;50.084;8.794;2024-02-26T05:51:13;6.90;99.90
9847;DHT22;68671;50.084;8.794;2024-02-26T05:53:41;7.00;99.90
9847;DHT22;68671;50.084;8.794;2024-02-26T05:56:21;6.90;99.90
9847;DHT22;68671;50.084;8.794;2024-02-26T05:59:17;6.90;99.90
9847;DHT22;68671;50.084;8.794;2024-02-26T06:02:35;6.90;99.90
9847;DHT22;68671;50.084;8.794;2024-02-26T06:08:20;6.80;99.90
9847;DHT22;68671;50.084;8.794;2024-02-26T06:31:13;6.70;99.90
9847;DHT22;68671;50.084;8.794;2024-02-26T06:33:40;6.60;99.90
9847;DHT22;68671;50.084;8.794;2024-02-26T06:36:07;6.70;99.90
9847;DHT22;68671;50.084;8.794;2024-02-26T06:38:34;6.70;99.90
9847;DHT22;68671;50.084;8.794;2024-02-26T06:41:01;6.70;99.90
9847;DHT22;68671;50.084;8.794;2024-02-26T06:43:29;6.70;99.90
9847;DHT22;68671;50.084;8.794;2024-02-26T06:45:56;6.70;99.90
9847;DHT22;68671;50.084;8.794;2024-02-26T06:48:24;6.70;99.90
9847;DHT22;68671;50.084;8.794;2024-02-26T06:50:51;6.70;99.90
9847;DHT22;68671;50.084;8.794;2024-02-26T06:53:18;6.70;99.90
9847;DHT22;68671;50.084;8.794;2024-02-26T06:55:45;6.70;99.90
9847;DHT22;68671;50.084;8.794;2024-02-26T06:58:13;6.70;99.90
9847;DHT22;68671;50.084;8.794;2024-02-26T07:00:40;6.70;99.90
9847;DHT22;68671;50.084;8.794;2024-02-26T07:06:31;6.70;99.90
9847;DHT22;68671;50.084;8.794;2024-02-26T07:12:03;6.70;99.90
9847;DHT22;68671;50.084;8.794;2024-02-26T07:14:43;6.70;99.90
9847;DHT22;68671;50.084;8.794;2024-02-26T07:17:38;6.70;99.90
9847;DHT22;68671;50.084;8.794;2024-02-26T07:20:08;6.70;99.90
9847;DHT22;68671;50.084;8.794;2024-02-26T07:22:37;6.70;99.90
9847;DHT22;68671;50.084;8.794;2024-02-26T07:25:04;6.70;99.90
9847;DHT22;68671;50.084;8.794;2024-02-26T07:27:33;6.70;99.90
9847;DHT22;68671;50.084;8.794;2024-02-26T07:30:00;6.80;99.90
9847;DHT22;68671;50.084;8.794;2024-02-26T07:32:27;6.80;99.90
9847;DHT22;68671;50.084;8.794;2024-02-26T07:34:54;6.80;99.90
9847;DHT22;68671;50.084;8.794;2024-02-26T07:37:21;6.80;99.90
9847;DHT22;68671;50.084;8.794;2024-02-26T07:39:49;6.80;99.90
9847;DHT22;68671;50.084;8.794;2024-02-26T07:42:40;6.80;99.90
9847;DHT22;68671;50.084;8.794;2024-02-26T07:45:15;6.80;99.90
9847;DHT22;68671;50.084;8.794;2024-02-26T07:47:45;6.80;99.90
9847;DHT22;68671;50.084;8.794;2024-02-26T07:50:12;6.90;99.90
9847;DHT22;68671;50.084;8.794;2024-02-26T07:52:39;7.00;99.90
9847;DHT22;68671;50.084;8.794;2024-02-26T07:55:08;7.00;99.90
9847;DHT22;68671;50.084;8.794;2024-02-26T07:57:36;7.00;99.90
9847;DHT22;68671;50.084;8.794;2024-02-26T08:00:08;7.00;99.90
9847;DHT22;68671;50.084;8.794;2024-02-26T08:02:45;7.10;99.90
9847;DHT22;68671;50.084;8.794;2024-02-26T08:05:13;7.10;99.90
9847;DHT22;68671;50.084;8.794;2024-02-26T08:07:41;7.10;99.90
9847;DHT22;68671;50.084;8.794;2024-02-26T08:10:10;7.20;99.90
9847;DHT22;68671;50.084;8.794;2024-02-26T08:12:39;7.20;99.90
9847;DHT22;68671;50.084;8.794;2024-02-26T08:15:09;7.20;99.90
9847;DHT22;68671;50.084;8.794;2024-02-26T08:17:45;7.20;99.90
9847;DHT22;68671;50.084;8.794;2024-02-26T08:20:13;7.20;99.90
9847;DHT22;68671;50.084;8.794;2024-02-26T08:22:40;7.20;99.90
9847;DHT22;68671;50.084;8.794;2024-02-26T08:25:10;7.20;99.90
9847;DHT22;68671;50.084;8.794;2024-02-26T08:27:37;7.10;99.90
9847;DHT22;68671;50.084;8.794;2024-02-26T08:30:04;7.10;99.90
9847;DHT22;68671;50.084;8.794;2024-02-26T08:32:34;7.10;99.90
9847;DHT22;68671;50.084;8.794;2024-02-26T08:35:01;7.10;99.90
9847;DHT22;68671;50.084;8.794;2024-02-26T08:37:28;7.10;99.90
9847;DHT22;68671;50.084;8.794;2024-02-26T08:39:55;7.10;99.90
9847;DHT22;68671;50.084;8.794;2024-02-26T08:42:23;7.10;99.90
9847;DHT22;68671;50.084;8.794;2024-02-26T08:44:50;7.20;99.90
9847;DHT22;68671;50.084;8.794;2024-02-26T08:47:17;7.10;99.90
9847;DHT22;68671;50.084;8.794;2024-02-26T08:49:44;7.10;99.90
9847;DHT22;68671;50.084;8.794;2024-02-26T08:52:12;7.20;99.90
9847;DHT22;68671;50.084;8.794;2024-02-26T08:54:39;7.20;99.90
9847;DHT22;68671;50.084;8.794;2024-02-26T08:57:06;7.30;99.90
9847;DHT22;68671;50.084;8.794;2024-02-26T08:59:34;7.30;99.90
9847;DHT22;68671;50.084;8.794;2024-02-26T09:02:02;7.30;99.90
9847;DHT22;68671;50.084;8.794;2024-02-26T09:04:29;7.40;99.90
9847;DHT22;68671;50.084;8.794;2024-02-26T09:06:55;7.40;99.90
9847;DHT22;68671;50.084;8.794;2024-02-26T09:09:22;7.30;99.90
9847;DHT22;68671;50.084;8.794;2024-02-26T09:11:52;7.40;99.90
9847;DHT22;68671;50.084;8.794;2024-02-26T09:14:26;7.40;99.90
9847;DHT22;68671;50.084;8.794;2024-02-26T09:16:54;7.40;99.90
9847;DHT22;68671;50.084;8.794;2024-02-26T09:19:23;7.40;99.90
9847;DHT22;68671;50.084;8.794;2024-02-26T09:21:51;7.40;99.90
9847;DHT22;68671;50.084;8.794;2024-02-26T09:24:19;7.50;99.90
9847;DHT22;68671;50.084;8.794;2024-02-26T09:26:46;7.40;99.90
9847;DHT22;68671;50.084;8.794;2024-02-26T09:29:13;7.40;99.90
9847;DHT22;68671;50.084;8.794;2024-02-26T09:31:39;7.40;99.90
9847;DHT22;68671;50.084;8.794;2024-02-26T09:34:08;7.40;99.90
9847;DHT22;68671;50.084;8.794;2024-02-26T09:36:35;7.40;99.90
9847;DHT22;68671;50.084;8.794;2024-02-26T09:39:05;7.40;99.90
9847;DHT22;68671;50.084;8.794;2024-02-26T09:42:10;7.40;99.90
9847;DHT22;68671;50.084;8.794;2024-02-26T09:44:40;7.40;99.90
9847;DHT22;68671;50.084;8.794;2024-02-26T09:47:10;7.40;99.90
9847;DHT22;68671;50.084;8.794;2024-02-26T09:49:42;7.30;99.90
9847;DHT22;68671;50.084;8.794;2024-02-26T09:52:10;7.30;99.90
9847;DHT22;68671;50.084;8.794;2024-02-26T09:54:38;7.30;99.90
9847;DHT22;68671;50.084;8.794;2024-02-26T09:57:09;7.30;99.90
9847;DHT22;68671;50.084;8.794;2024-02-26T09:59:45;7.40;99.90
9847;DHT22;68671;50.084;8.794;2024-02-26T10:02:16;7.40;99.90
9847;DHT22;68671;50.084;8.794;2024-02-26T10:04:47;7.40;99.90
9847;DHT22;68671;50.084;8.794;2024-02-26T10:07:55;7.40;99.90
9847;DHT22;68671;50.084;8.794;2024-02-26T10:11:13;7.30;99.90
9847;DHT22;68671;50.084;8.794;2024-02-26T10:14:08;7.40;99.90
9847;DHT22;68671;50.084;8.794;2024-02-26T10:20:39;7.60;99.90
9847;DHT22;68671;50.084;8.794;2024-02-26T10:23:25;7.60;99.90
9847;DHT22;68671;50.084;8.794;2024-02-26T10:25:56;7.60;99.90
9847;DHT22;68671;50.084;8.794;2024-02-26T10:28:40;7.70;99.90
9847;DHT22;68671;50.084;8.794;2024-02-26T10:31:30;7.70;99.90
9847;DHT22;68671;50.084;8.794;2024-02-26T10:36:46;7.70;99.90
9847;DHT22;68671;50.084;8.794;2024-02-26T10:39:16;7.70;99.90
9847;DHT22;68671;50.084;8.794;2024-02-26T10:41:49;7.70;99.90
9847;DHT22;68671;50.084;8.794;2024-02-26T10:44:26;7.70;99.90
9847;DHT22;68671;50.084;8.794;2024-02-26T10:50:46;7.80;99.90
9847;DHT22;68671;50.084;8.794;2024-02-26T10:53:20;7.80;99.90
9847;DHT22;68671;50.084;8.794;2024-02-26T10:55:55;7.90;99.90
9847;DHT22;68671;50.084;8.794;2024-02-26T10:58:24;7.80;99.90
9847;DHT22;68671;50.084;8.794;2024-02-26T11:00:52;7.90;99.90
9847;DHT22;68671;50.084;8.794;2024-02-26T11:03:20;7.90;99.90
9847;DHT22;68671;50.084;8.794;2024-02-26T11:05:59;7.90;99.90
9847;DHT22;68671;50.084;8.794;2024-02-26T11:12:11;8.10;99.90
9847;DHT22;68671;50.084;8.794;2024-02-26T11:14:43;8.10;99.90
9847;DHT22;68671;50.084;8.794;2024-02-26T11:17:11;8.10;99.90
9847;DHT22;68671;50.084;8.794;2024-02-26T11:19:41;8.10;99.90
9847;DHT22;68671;50.084;8.794;2024-02-26T11:22:10;8.10;99.90
9847;DHT22;68671;50.084;8.794;2024-02-26T11:24:39;8.20;99.90
9847;DHT22;68671;50.084;8.794;2024-02-26T11:27:11;8.20;99.90
9847;DHT22;68671;50.084;8.794;2024-02-26T11:29:41;8.30;99.90
9847;DHT22;68671;50.084;8.794;2024-02-26T11:32:10;8.30;99.90
9847;DHT22;68671;50.084;8.794;2024-02-26T11:34:38;8.30;99.90
9847;DHT22;68671;50.084;8.794;2024-02-26T11:37:13;8.30;99.90
9847;DHT22;68671;50.084;8.794;2024-02-26T11:39:45;8.30;99.90
9847;DHT22;68671;50.084;8.794;2024-02-26T11:42:15;8.30;99.90
9847;DHT22;68671;50.084;8.794;2024-02-26T11:45:01;8.30;99.90
9847;DHT22;68671;50.084;8.794;2024-02-26T11:47:35;8.30;99.90
9847;DHT22;68671;50.084;8.794;2024-02-26T11:50:34;8.40;99.90
9847;DHT22;68671;50.084;8.794;2024-02-26T11:53:21;8.40;99.90
9847;DHT22;68671;50.084;8.794;2024-02-26T11:56:20;8.40;99.90
9847;DHT22;68671;50.084;8.794;2024-02-26T11:58:53;8.50;99.90
9847;DHT22;68671;50.084;8.794;2024-02-26T12:01:45;8.50;99.90
9847;DHT22;68671;50.084;8.794;2024-02-26T12:04:18;8.50;99.90
9847;DHT22;68671;50.084;8.794;2024-02-26T12:06:51;8.50;99.90
9847;DHT22;68671;50.084;8.794;2024-02-26T12:09:31;8.50;99.90
9847;DHT22;68671;50.084;8.794;2024-02-26T12:11:59;8.50;99.90
9847;DHT22;68671;50.084;8.794;2024-02-26T12:14:29;8.50;99.90
9847;DHT22;68671;50.084;8.794;2024-02-26T12:16:56;8.50;99.90
9847;DHT22;68671;50.084;8.794;2024-02-26T12:19:24;8.50;99.90
9847;DHT22;68671;50.084;8.794;2024-02-26T12:21:52;8.50;99.90
9847;DHT22;68671;50.084;8.794;2024-02-26T12:24:20;8.60;99.90
9847;DHT22;68671;50.084;8.794;2024-02-26T12:26:48;8.70;99.90
9847;DHT22;68671;50.084;8.794;2024-02-26T12:29:21;8.70;99.90
9847;DHT22;68671;50.084;8.794;2024-02-26T12:32:12;8.60;99.90
9847;DHT22;68671;50.084;8.794;2024-02-26T12:34:45;8.70;99.90
9847;DHT22;68671;50.084;8.794;2024-02-26T12:37:12;8.70;99.90
9847;DHT22;68671;50.084;8.794;2024-02-26T12:39:39;8.70;99.90
9847;DHT22;68671;50.084;8.794;2024-02-26T12:42:06;8.80;99.90
9847;DHT22;68671;50.084;8.794;2024-02-26T12:44:34;8.90;99.90
9847;DHT22;68671;50.084;8.794;2024-02-26T12:47:04;8.90;99.90
9847;DHT22;68671;50.084;8.794;2024-02-26T12:49:31;9.00;99.90
9847;DHT22;68671;50.084;8.794;2024-02-26T12:52:00;9.10;99.90
9847;DHT22;68671;50.084;8.794;2024-02-26T12:54:28;9.10;99.90
9847;DHT22;68671;50.084;8.794;2024-02-26T12:56:57;9.20;99.90
9847;DHT22;68671;50.084;8.794;2024-02-26T12:59:24;9.20;99.90
9847;DHT22;68671;50.084;8.794;2024-02-26T13:02:11;9.10;99.90
9847;DHT22;68671;50.084;8.794;2024-02-26T13:04:39;9.20;99.90
9847;DHT22;68671;50.084;8.794;2024-02-26T13:07:06;9.20;99.90
9847;DHT22;68671;50.084;8.794;2024-02-26T13:09:34;9.30;99.90
9847;DHT22;68671;50.084;8.794;2024-02-26T13:12:04;9.30;99.90
9847;DHT22;68671;50.084;8.794;2024-02-26T13:14:31;9.30;99.90
9847;DHT22;68671;50.084;8.794;2024-02-26T13:17:00;9.40;99.90
9847;DHT22;68671;50.084;8.794;2024-02-26T13:19:35;9.40;99.90
9847;DHT22;68671;50.084;8.794;2024-02-26T13:22:32;9.50;99.90
9847;DHT22;68671;50.084;8.794;2024-02-26T13:25:22;9.50;99.90
9847;DHT22;68671;50.084;8.794;2024-02-26T13:31:14;9.50;99.90
9847;DHT22;68671;50.084;8.794;2024-02-26T13:34:23;9.50;99.90
9847;DHT22;68671;50.084;8.794;2024-02-26T13:40:47;9.40;99.90
9847;DHT22;68671;50.084;8.794;2024-02-26T13:46:31;9.30;99.90
9847;DHT22;68671;50.084;8.794;2024-02-26T13:49:04;9.40;99.90
9847;DHT22;68671;50.084;8.794;2024-02-26T13:51:31;9.50;99.90
9847;DHT22;68671;50.084;8.794;2024-02-26T13:54:00;9.50;99.90
9847;DHT22;68671;50.084;8.794;2024-02-26T13:56:32;9.40;99.90
9847;DHT22;68671;50.084;8.794;2024-02-26T13:58:59;9.40;99.90
9847;DHT22;68671;50.084;8.794;2024-02-26T14:01:26;9.40;99.90
9847;DHT22;68671;50.084;8.794;2024-02-26T14:03:56;9.50;99.90
9847;DHT22;68671;50.084;8.794;2024-02-26T14:06:23;9.50;99.90
9847;DHT22;68671;50.084;8.794;2024-02-26T14:08:50;9.50;99.90
9847;DHT22;68671;50.084;8.794;2024-02-26T14:11:19;9.50;99.90
9847;DHT22;68671;50.084;8.794;2024-02-26T14:13:49;9.50;99.90
9847;DHT22;68671;50.084;8.794;2024-02-26T14:16:19;9.50;99.90
9847;DHT22;68671;50.084;8.794;2024-02-26T14:18:47;9.50;99.90
9847;DHT22;68671;50.084;8.794;2024-02-26T14:21:16;9.50;99.90
9847;DHT22;68671;50.084;8.794;2024-02-26T14:23:49;9.60;99.90
9847;DHT22;68671;50.084;8.794;2024-02-26T14:26:16;9.60;99.90
9847;DHT22;68671;50.084;8.794;2024-02-26T14:28:43;9.60;99.90
9847;DHT22;68671;50.084;8.794;2024-02-26T14:31:12;9.60;99.90
9847;DHT22;68671;50.084;8.794;2024-02-26T14:33:39;9.50;99.90
9847;DHT22;68671;50.084;8.794;2024-02-26T14:36:08;9.50;99.90
9847;DHT22;68671;50.084;8.794;2024-02-26T14:38:35;9.50;99.90
9847;DHT22;68671;50.084;8.794;2024-02-26T14:41:03;9.50;99.90
9847;DHT22;68671;50.084;8.794;2024-02-26T14:43:31;9.40;99.90
9847;DHT22;68671;50.084;8.794;2024-02-26T14:46:01;9.50;99.90
9847;DHT22;68671;50.084;8.794;2024-02-26T14:48:30;9.50;99.90
9847;DHT22;68671;50.084;8.794;2024-02-26T14:50:57;9.40;99.90
9847;DHT22;68671;50.084;8.794;2024-02-26T14:53:24;9.40;99.90
9847;DHT22;68671;50.084;8.794;2024-02-26T14:55:51;9.40;99.90
9847;DHT22;68671;50.084;8.794;2024-02-26T14:58:18;9.40;99.90
9847;DHT22;68671;50.084;8.794;2024-02-26T15:00:46;9.40;99.90
9847;DHT22;68671;50.084;8.794;2024-02-26T15:03:13;9.40;99.90
9847;DHT22;68671;50.084;8.794;2024-02-26T15:05:41;9.50;99.90
9847;DHT22;68671;50.084;8.794;2024-02-26T15:08:08;9.50;99.90
9847;DHT22;68671;50.084;8.794;2024-02-26T15:10:40;9.50;99.90
9847;DHT22;68671;50.084;8.794;2024-02-26T15:13:12;9.40;99.90
9847;DHT22;68671;50.084;8.794;2024-02-26T15:15:40;9.50;99.90
9847;DHT22;68671;50.084;8.794;2024-02-26T15:18:07;9.40;99.90
9847;DHT22;68671;50.084;8.794;2024-02-26T15:20:37;9.40;99.90
9847;DHT22;68671;50.084;8.794;2024-02-26T15:23:06;9.40;99.90
9847;DHT22;68671;50.084;8.794;2024-02-26T15:25:33;9.50;99.90
9847;DHT22;68671;50.084;8.794;2024-02-26T15:28:03;9.60;99.90
9847;DHT22;68671;50.084;8.794;2024-02-26T15:30:31;9.50;99.90
9847;DHT22;68671;50.084;8.794;2024-02-26T15:32:59;9.50;99.90
9847;DHT22;68671;50.084;8.794;2024-02-26T15:35:27;9.50;99.90
9847;DHT22;68671;50.084;8.794;2024-02-26T15:37:54;9.50;99.90
9847;DHT22;68671;50.084;8.794;2024-02-26T15:40:22;9.50;99.90
9847;DHT22;68671;50.084;8.794;2024-02-26T15:42:49;9.50;99.90
9847;DHT22;68671;50.084;8.794;2024-02-26T15:45:16;9.40;99.90
9847;DHT22;68671;50.084;8.794;2024-02-26T15:47:45;9.50;99.90
9847;DHT22;68671;50.084;8.794;2024-02-26T15:50:13;9.40;99.90
9847;DHT22;68671;50.084;8.794;2024-02-26T15:52:40;9.50;99.90
9847;DHT22;68671;50.084;8.794;2024-02-26T15:55:07;9.40;99.90
9847;DHT22;68671;50.084;8.794;2024-02-26T15:57:36;9.40;99.90
9847;DHT22;68671;50.084;8.794;2024-02-26T16:00:04;9.40;99.90
9847;DHT22;68671;50.084;8.794;2024-02-26T16:02:36;9.40;99.90
9847;DHT22;68671;50.084;8.794;2024-02-26T16:05:04;9.40;99.90
9847;DHT22;68671;50.084;8.794;2024-02-26T16:07:34;9.30;99.90
9847;DHT22;68671;50.084;8.794;2024-02-26T16:10:02;9.30;99.90
9847;DHT22;68671;50.084;8.794;2024-02-26T16:12:35;9.30;99.90
9847;DHT22;68671;50.084;8.794;2024-02-26T16:15:08;9.30;99.90
9847;DHT22;68671;50.084;8.794;2024-02-26T16:18:19;9.30;99.90
9847;DHT22;68671;50.084;8.794;2024-02-26T16:21:34;9.30;99.90
9847;DHT22;68671;50.084;8.794;2024-02-26T16:24:17;9.30;99.90
9847;DHT22;68671;50.084;8.794;2024-02-26T16:27:15;9.30;99.90
9847;DHT22;68671;50.084;8.794;2024-02-26T16:33:26;9.30;99.90
9847;DHT22;68671;50.084;8.794;2024-02-26T16:36:15;9.30;99.90
9847;DHT22;68671;50.084;8.794;2024-02-26T16:39:04;9.30;99.90
9847;DHT22;68671;50.084;8.794;2024-02-26T16:42:37;9.30;99.90
9847;DHT22;68671;50.084;8.794;2024-02-26T16:45:36;9.40;99.90
9847;DHT22;68671;50.084;8.794;2024-02-26T16:52:13;9.30;99.90
9847;DHT22;68671;50.084;8.794;2024-02-26T16:55:18;9.40;99.90
9847;DHT22;68671;50.084;8.794;2024-02-26T16:58:52;9.40;99.90
9847;DHT22;68671;50.084;8.794;2024-02-26T17:01:49;9.40;99.90
9847;DHT22;68671;50.084;8.794;2024-02-26T17:07:51;9.40;99.90
9847;DHT22;68671;50.084;8.794;2024-02-26T17:10:57;9.40;99.90
9847;DHT22;68671;50.084;8.794;2024-02-26T17:13:32;9.40;99.90
9847;DHT22;68671;50.084;8.794;2024-02-26T17:19:53;9.20;99.90
9847;DHT22;68671;50.084;8.794;2024-02-26T17:25:54;9.10;99.90
9847;DHT22;68671;50.084;8.794;2024-02-26T17:28:46;9.10;99.90
9847;DHT22;68671;50.084;8.794;2024-02-26T17:31:26;9.00;99.90
9847;DHT22;68671;50.084;8.794;2024-02-26T17:35:01;8.90;99.90
9847;DHT22;68671;50.084;8.794;2024-02-26T17:38:06;8.80;99.90
9847;DHT22;68671;50.084;8.794;2024-02-26T17:51:25;8.60;99.90
9847;DHT22;68671;50.084;8.794;2024-02-26T17:57:42;8.70;99.90
9847;DHT22;68671;50.084;8.794;2024-02-26T18:01:44;8.70;99.90
9847;DHT22;68671;50.084;8.794;2024-02-26T18:04:11;8.80;99.90
9847;DHT22;68671;50.084;8.794;2024-02-26T18:06:39;8.80;99.90
9847;DHT22;68671;50.084;8.794;2024-02-26T18:09:08;8.90;99.90
9847;DHT22;68671;50.084;8.794;2024-02-26T18:11:35;8.90;99.90
9847;DHT22;68671;50.084;8.794;2024-02-26T18:14:02;8.90;99.90
9847;DHT22;68671;50.084;8.794;2024-02-26T18:16:29;9.00;99.90
9847;DHT22;68671;50.084;8.794;2024-02-26T18:18:56;9.00;99.90
9847;DHT22;68671;50.084;8.794;2024-02-26T18:21:25;9.00;99.90
9847;DHT22;68671;50.084;8.794;2024-02-26T18:23:55;9.00;99.90
9847;DHT22;68671;50.084;8.794;2024-02-26T18:26:23;9.00;99.90
9847;DHT22;68671;50.084;8.794;2024-02-26T18:28:50;9.00;99.90
9847;DHT22;68671;50.084;8.794;2024-02-26T18:31:18;9.00;99.90
9847;DHT22;68671;50.084;8.794;2024-02-26T18:33:45;9.00;99.90
9847;DHT22;68671;50.084;8.794;2024-02-26T18:36:12;9.00;99.90
9847;DHT22;68671;50.084;8.794;2024-02-26T18:38:40;9.00;99.90
9847;DHT22;68671;50.084;8.794;2024-02-26T18:41:17;9.00;99.90
9847;DHT22;68671;50.084;8.794;2024-02-26T18:43:45;9.00;99.90
9847;DHT22;68671;50.084;8.794;2024-02-26T18:46:12;9.00;99.90
9847;DHT22;68671;50.084;8.794;2024-02-26T18:48:39;8.90;99.90
9847;DHT22;68671;50.084;8.794;2024-02-26T18:51:10;8.90;99.90
9847;DHT22;68671;50.084;8.794;2024-02-26T18:53:37;8.90;99.90
9847;DHT22;68671;50.084;8.794;2024-02-26T18:56:08;9.00;99.90
9847;DHT22;68671;50.084;8.794;2024-02-26T18:58:35;9.00;99.90
9847;DHT22;68671;50.084;8.794;2024-02-26T19:05:03;9.00;99.90